Time,TemperatureF,DewpointF,PressureIn,WindDirection,WindDirectionDegrees,WindSpeedMPH,WindSpeedGustMPH,Humidity,HourlyPrecipIn,Conditions,Clouds,dailyrainin,SolarRadiationWatts/m^2,SoftwareType,DateUTC
2013-01-17 00:32:00,14.0,13.0,30.53,SE,139,2.0,3.0,94,-99.99,,,-99.99,0.000000,,2013-01-17 08:32:00,
2013-01-17 01:22:00,11.0,9.0,30.52,WSW,255,2.0,2.0,91,-99.99,,,-99.99,0.000000,,2013-01-17 09:22:00,
2013-01-17 02:22:00,10.0,8.0,30.52,North,-999,0.0,0.0,90,-99.99,,,-99.99,0.000000,,2013-01-17 10:22:00,
2013-01-17 03:22:00,10.0,8.0,30.51,NE,46,0.0,1.0,90,-99.99,,,-99.99,0.000000,,2013-01-17 11:22:00,
2013-01-17 03:32:00,10.0,8.0,30.51,NE,46,0.0,1.0,90,-99.99,,,-99.99,0.000000,,2013-01-17 11:32:00,
2013-01-17 04:22:00,7.0,5.0,30.50,West,281,1.0,2.0,89,-99.99,,,-99.99,0.000000,,2013-01-17 12:22:00,
2013-01-17 04:32:00,7.0,5.0,30.50,West,281,1.0,2.0,89,-99.99,,,-99.99,0.000000,,2013-01-17 12:32:00,
2013-01-17 05:22:00,6.0,3.0,30.50,ESE,103,1.0,2.0,88,-99.99,,,-99.99,0.000000,,2013-01-17 13:22:00,
2013-01-17 05:33:00,6.0,3.0,30.50,ESE,103,1.0,2.0,88,-99.99,,,-99.99,0.000000,,2013-01-17 13:33:00,
2013-01-17 06:23:00,6.0,4.0,30.49,West,281,1.0,2.0,89,-99.99,,,-99.99,0.000000,,2013-01-17 14:23:00,
2013-01-17 06:33:00,6.0,4.0,30.49,West,281,1.0,2.0,89,-99.99,,,-99.99,0.000000,,2013-01-17 14:33:00,
2013-01-17 07:22:00,5.0,2.0,30.49,East,98,1.0,1.0,88,-99.99,,,-99.99,0.000000,,2013-01-17 15:22:00,
2013-01-17 07:33:00,5.0,2.0,30.49,East,98,1.0,1.0,88,-99.99,,,-99.99,0.000000,,2013-01-17 15:33:00,
2013-01-17 08:22:00,6.0,3.0,30.51,South,173,0.0,1.0,89,-99.99,,,-99.99,20.000000,,2013-01-17 16:22:00,
2013-01-17 08:33:00,6.0,3.0,30.51,South,173,0.0,1.0,89,-99.99,,,-99.99,20.000000,,2013-01-17 16:33:00,
2013-01-17 08:40:00,14.0,12.0,30.53,South,183,2.0,3.0,91,-99.99,,,-99.99,100.000000,,2013-01-17 16:40:00,
2013-01-17 09:22:00,14.0,12.0,30.53,South,183,2.0,3.0,91,-99.99,,,-99.99,100.000000,,2013-01-17 17:22:00,
2013-01-17 09:33:00,14.0,12.0,30.53,South,183,2.0,3.0,91,-99.99,,,-99.99,100.000000,,2013-01-17 17:33:00,
2013-01-17 09:40:00,18.0,16.0,30.53,WNW,300,1.0,1.0,91,-99.99,,,-99.99,200.000000,,2013-01-17 17:40:00,
2013-01-17 10:22:00,18.0,16.0,30.53,WNW,300,1.0,1.0,91,-99.99,,,-99.99,200.000000,,2013-01-17 18:22:00,
2013-01-17 10:33:00,18.0,16.0,30.53,WNW,300,1.0,1.0,91,-99.99,,,-99.99,200.000000,,2013-01-17 18:33:00,
2013-01-17 10:40:00,24.0,19.0,30.50,NNW,330,1.0,2.0,82,-99.99,,,-99.99,480.000000,,2013-01-17 18:40:00,
2013-01-17 11:22:00,24.0,19.0,30.50,NNW,330,1.0,2.0,82,-99.99,,,-99.99,480.000000,,2013-01-17 19:22:00,
2013-01-17 11:33:00,24.0,19.0,30.50,NNW,330,1.0,2.0,82,-99.99,,,-99.99,480.000000,,2013-01-17 19:33:00,
2013-01-17 11:40:00,30.0,21.0,30.47,SSW,209,1.0,3.0,69,-99.99,,,-99.99,570.000000,,2013-01-17 19:40:00,
2013-01-17 12:22:00,30.0,21.0,30.47,SSW,209,1.0,3.0,69,-99.99,,,-99.99,570.000000,,2013-01-17 20:22:00,
2013-01-17 12:33:00,30.0,21.0,30.47,SSW,209,1.0,3.0,69,-99.99,,,-99.99,570.000000,,2013-01-17 20:33:00,
2013-01-17 12:40:00,31.0,21.0,30.43,WNW,286,2.0,3.0,65,-99.99,,,-99.99,570.000000,,2013-01-17 20:40:00,
2013-01-17 13:23:00,31.0,21.0,30.43,WNW,286,2.0,3.0,65,-99.99,,,-99.99,570.000000,,2013-01-17 21:23:00,
2013-01-17 13:33:00,31.0,21.0,30.43,WNW,286,2.0,3.0,65,-99.99,,,-99.99,570.000000,,2013-01-17 21:33:00,
2013-01-17 13:40:00,35.0,21.0,30.39,SW,236,1.0,2.0,56,-99.99,,,-99.99,510.000000,,2013-01-17 21:40:00,
2013-01-17 14:22:00,35.0,21.0,30.39,SW,236,1.0,2.0,56,-99.99,,,-99.99,510.000000,,2013-01-17 22:22:00,
2013-01-17 14:33:00,35.0,21.0,30.39,SW,236,1.0,2.0,56,-99.99,,,-99.99,510.000000,,2013-01-17 22:33:00,
2013-01-17 14:40:00,37.0,21.0,30.38,West,264,1.0,2.0,53,-99.99,,,-99.99,390.000000,,2013-01-17 22:40:00,
2013-01-17 15:22:00,37.0,21.0,30.38,West,264,1.0,2.0,53,-99.99,,,-99.99,390.000000,,2013-01-17 23:22:00,
2013-01-17 15:32:00,37.0,21.0,30.38,West,264,1.0,2.0,53,-99.99,,,-99.99,390.000000,,2013-01-17 23:32:00,
2013-01-17 15:40:00,35.0,23.0,30.38,SW,216,3.0,4.0,60,-99.99,,,-99.99,230.000000,,2013-01-17 23:40:00,
2013-01-17 16:23:00,35.0,23.0,30.38,SW,216,3.0,4.0,60,-99.99,,,-99.99,230.000000,,2013-01-18 00:23:00,
2013-01-17 16:32:00,35.0,23.0,30.38,SW,216,3.0,4.0,60,-99.99,,,-99.99,230.000000,,2013-01-18 00:32:00,
2013-01-17 16:40:00,29.0,20.0,30.39,SSW,210,3.0,4.0,68,-99.99,,,-99.99,10.000000,,2013-01-18 00:40:00,
2013-01-17 17:22:00,29.0,20.0,30.39,SSW,210,3.0,4.0,68,-99.99,,,-99.99,10.000000,,2013-01-18 01:22:00,
2013-01-17 17:33:00,29.0,20.0,30.39,SSW,210,3.0,4.0,68,-99.99,,,-99.99,10.000000,,2013-01-18 01:33:00,
2013-01-17 18:22:00,23.0,19.0,30.41,SSE,163,2.0,4.0,84,-99.99,,,-99.99,0.000000,,2013-01-18 02:22:00,
2013-01-17 18:40:00,22.0,19.0,30.41,SSW,198,3.0,4.0,87,-99.99,,,-99.99,0.000000,,2013-01-18 02:40:00,
2013-01-17 19:22:00,22.0,19.0,30.41,SSW,198,3.0,4.0,87,-99.99,,,-99.99,0.000000,,2013-01-18 03:22:00,
2013-01-17 19:33:00,22.0,19.0,30.41,SSW,198,3.0,4.0,87,-99.99,,,-99.99,0.000000,,2013-01-18 03:33:00,
2013-01-17 19:40:00,20.0,17.0,30.42,West,259,1.0,2.0,86,-99.99,,,-99.99,0.000000,,2013-01-18 03:40:00,
2013-01-17 20:22:00,20.0,17.0,30.42,West,259,1.0,2.0,86,-99.99,,,-99.99,0.000000,,2013-01-18 04:22:00,
2013-01-17 20:32:00,20.0,17.0,30.42,West,259,1.0,2.0,86,-99.99,,,-99.99,0.000000,,2013-01-18 04:32:00,
2013-01-17 20:40:00,18.0,15.0,30.42,SSE,168,3.0,4.0,89,-99.99,,,-99.99,0.000000,,2013-01-18 04:40:00,
2013-01-17 22:22:00,15.0,13.0,30.43,South,174,1.0,2.0,90,-99.99,,,-99.99,0.000000,,2013-01-18 06:22:00,
2013-01-17 22:40:00,15.0,13.0,30.42,WSW,251,1.0,3.0,92,-99.99,,,-99.99,0.000000,,2013-01-18 06:40:00,
2013-01-17 23:22:00,15.0,13.0,30.42,WSW,251,1.0,3.0,92,-99.99,,,-99.99,0.000000,,2013-01-18 07:22:00,
2013-01-17 23:32:00,15.0,13.0,30.42,WSW,251,1.0,3.0,92,-99.99,,,-99.99,0.000000,,2013-01-18 07:32:00,
2013-01-17 23:40:00,13.0,11.0,30.42,WNW,298,1.0,1.0,92,-99.99,,,-99.99,0.000000,,2013-01-18 07:40:00,